sensor_id;sensor_type;location;lat;lon;timestamp;pressure;altitude;pressure_sealevel;temperature;humidity
35226;BME280;21813;49.686;21.766;2022-12-17T00:00:09;98059.22;;;-1.03;100.00
35226;BME280;21813;49.686;21.766;2022-12-17T00:03:13;98059.28;;;-1.04;100.00
35226;BME280;21813;49.686;21.766;2022-12-17T00:05:58;98050.94;;;-1.09;100.00
35226;BME280;21813;49.686;21.766;2022-12-17T00:08:42;98054.28;;;-1.07;100.00
35226;BME280;21813;49.686;21.766;2022-12-17T00:11:26;98050.06;;;-1.08;100.00
35226;BME280;21813;49.686;21.766;2022-12-17T00:14:10;98061.03;;;-1.06;100.00
35226;BME280;21813;49.686;21.766;2022-12-17T00:16:55;98052.63;;;-1.08;100.00
35226;BME280;21813;49.686;21.766;2022-12-17T00:19:39;98060.28;;;-1.08;100.00
35226;BME280;21813;49.686;21.766;2022-12-17T00:22:25;98068.84;;;-1.09;100.00
35226;BME280;21813;49.686;21.766;2022-12-17T00:25:09;98066.28;;;-1.09;100.00
35226;BME280;21813;49.686;21.766;2022-12-17T00:27:53;98072.25;;;-1.09;100.00
35226;BME280;21813;49.686;21.766;2022-12-17T00:30:38;98080.78;;;-1.10;100.00
35226;BME280;21813;49.686;21.766;2022-12-17T00:33:22;98084.22;;;-1.11;100.00
35226;BME280;21813;49.686;21.766;2022-12-17T00:36:07;98083.53;;;-1.14;100.00
35226;BME280;21813;49.686;21.766;2022-12-17T00:38:52;98081.84;;;-1.15;100.00
35226;BME280;21813;49.686;21.766;2022-12-17T00:41:36;98083.69;;;-1.19;100.00
35226;BME280;21813;49.686;21.766;2022-12-17T00:44:21;98085.66;;;-1.25;100.00
35226;BME280;21813;49.686;21.766;2022-12-17T00:47:05;98084.13;;;-1.29;100.00
35226;BME280;21813;49.686;21.766;2022-12-17T00:49:49;98092.66;;;-1.30;100.00
35226;BME280;21813;49.686;21.766;2022-12-17T00:52:33;98089.22;;;-1.29;100.00
35226;BME280;21813;49.686;21.766;2022-12-17T00:55:17;98094.44;;;-1.33;100.00
35226;BME280;21813;49.686;21.766;2022-12-17T00:58:01;98098.72;;;-1.33;100.00
35226;BME280;21813;49.686;21.766;2022-12-17T01:00:47;98094.44;;;-1.33;100.00
35226;BME280;21813;49.686;21.766;2022-12-17T01:03:31;98094.44;;;-1.33;100.00
35226;BME280;21813;49.686;21.766;2022-12-17T01:06:17;98099.47;;;-1.29;100.00
35226;BME280;21813;49.686;21.766;2022-12-17T01:09:01;98085.84;;;-1.30;100.00
35226;BME280;21813;49.686;21.766;2022-12-17T01:11:46;98080.66;;;-1.28;100.00
35226;BME280;21813;49.686;21.766;2022-12-17T01:14:30;98075.63;;;-1.30;100.00
35226;BME280;21813;49.686;21.766;2022-12-17T01:17:15;98082.44;;;-1.30;100.00
35226;BME280;21813;49.686;21.766;2022-12-17T01:20:00;98074.94;;;-1.35;100.00
35226;BME280;21813;49.686;21.766;2022-12-17T01:22:44;98075.66;;;-1.31;100.00
35226;BME280;21813;49.686;21.766;2022-12-17T01:25:29;98074.19;;;-1.39;100.00
35226;BME280;21813;49.686;21.766;2022-12-17T01:28:22;98091.22;;;-1.38;100.00
35226;BME280;21813;49.686;21.766;2022-12-17T01:31:08;98076.22;;;-1.47;100.00
35226;BME280;21813;49.686;21.766;2022-12-17T01:33:54;98092.34;;;-1.45;100.00
35226;BME280;21813;49.686;21.766;2022-12-17T01:36:38;98101.78;;;-1.47;100.00
35226;BME280;21813;49.686;21.766;2022-12-17T01:39:24;98106.00;;;-1.46;100.00
35226;BME280;21813;49.686;21.766;2022-12-17T01:42:12;98107.72;;;-1.46;100.00
35226;BME280;21813;49.686;21.766;2022-12-17T01:44:57;98106.84;;;-1.45;100.00
35226;BME280;21813;49.686;21.766;2022-12-17T01:48:04;98113.66;;;-1.46;100.00
35226;BME280;21813;49.686;21.766;2022-12-17T01:50:55;98113.00;;;-1.51;100.00
35226;BME280;21813;49.686;21.766;2022-12-17T01:53:45;98099.34;;;-1.50;100.00
35226;BME280;21813;49.686;21.766;2022-12-17T01:56:37;98107.13;;;-1.53;100.00
35226;BME280;21813;49.686;21.766;2022-12-17T02:02:59;98118.09;;;-1.51;100.00
35226;BME280;21813;49.686;21.766;2022-12-17T02:05:53;98112.22;;;-1.53;100.00
35226;BME280;21813;49.686;21.766;2022-12-17T02:14:49;98082.53;;;-1.57;100.00
35226;BME280;21813;49.686;21.766;2022-12-17T02:17:40;98083.47;;;-1.58;100.00
35226;BME280;21813;49.686;21.766;2022-12-17T02:20:31;98088.66;;;-1.61;100.00
35226;BME280;21813;49.686;21.766;2022-12-17T02:29:13;98101.50;;;-1.62;100.00
35226;BME280;21813;49.686;21.766;2022-12-17T02:31:59;98119.44;;;-1.64;100.00
35226;BME280;21813;49.686;21.766;2022-12-17T02:34:45;98116.00;;;-1.63;100.00
35226;BME280;21813;49.686;21.766;2022-12-17T02:37:31;98110.97;;;-1.66;100.00
35226;BME280;21813;49.686;21.766;2022-12-17T02:40:18;98117.75;;;-1.65;100.00
35226;BME280;21813;49.686;21.766;2022-12-17T02:43:05;98131.47;;;-1.67;100.00
35226;BME280;21813;49.686;21.766;2022-12-17T02:45:50;98135.84;;;-1.71;100.00
35226;BME280;21813;49.686;21.766;2022-12-17T02:48:37;98134.28;;;-1.75;100.00
35226;BME280;21813;49.686;21.766;2022-12-17T02:51:21;98139.41;;;-1.75;100.00
35226;BME280;21813;49.686;21.766;2022-12-17T02:54:08;98139.47;;;-1.76;100.00
35226;BME280;21813;49.686;21.766;2022-12-17T02:56:52;98138.50;;;-1.74;100.00
35226;BME280;21813;49.686;21.766;2022-12-17T02:59:38;98161.47;;;-1.72;100.00
35226;BME280;21813;49.686;21.766;2022-12-17T03:02:22;98180.22;;;-1.73;100.00
35226;BME280;21813;49.686;21.766;2022-12-17T03:05:07;98187.00;;;-1.72;100.00
35226;BME280;21813;49.686;21.766;2022-12-17T03:07:51;98186.28;;;-1.76;100.00
35226;BME280;21813;49.686;21.766;2022-12-17T03:10:38;98175.28;;;-1.78;100.00
35226;BME280;21813;49.686;21.766;2022-12-17T03:13:38;98148.06;;;-1.79;100.00
35226;BME280;21813;49.686;21.766;2022-12-17T03:16:24;98152.41;;;-1.81;100.00
35226;BME280;21813;49.686;21.766;2022-12-17T03:19:09;98155.03;;;-1.84;100.00
35226;BME280;21813;49.686;21.766;2022-12-17T03:21:55;98148.16;;;-1.82;100.00
35226;BME280;21813;49.686;21.766;2022-12-17T03:24:39;98145.63;;;-1.82;100.00
35226;BME280;21813;49.686;21.766;2022-12-17T03:27:24;98139.66;;;-1.83;100.00
35226;BME280;21813;49.686;21.766;2022-12-17T03:30:09;98131.22;;;-1.85;100.00
35226;BME280;21813;49.686;21.766;2022-12-17T03:32:54;98136.31;;;-1.85;100.00
35226;BME280;21813;49.686;21.766;2022-12-17T03:35:38;98133.84;;;-1.86;100.00
35226;BME280;21813;49.686;21.766;2022-12-17T03:38:24;98139.81;;;-1.87;100.00
35226;BME280;21813;49.686;21.766;2022-12-17T03:41:09;98141.50;;;-1.86;100.00
35226;BME280;21813;49.686;21.766;2022-12-17T03:43:55;98138.94;;;-1.86;100.00
35226;BME280;21813;49.686;21.766;2022-12-17T03:46:38;98153.31;;;-1.84;100.00
35226;BME280;21813;49.686;21.766;2022-12-17T03:49:24;98161.84;;;-1.85;100.00
35226;BME280;21813;49.686;21.766;2022-12-17T03:52:08;98167.81;;;-1.84;100.00
35226;BME280;21813;49.686;21.766;2022-12-17T03:54:53;98155.09;;;-1.86;100.00
35226;BME280;21813;49.686;21.766;2022-12-17T03:57:37;98164.47;;;-1.86;100.00
35226;BME280;21813;49.686;21.766;2022-12-17T04:00:24;98171.34;;;-1.88;100.00
35226;BME280;21813;49.686;21.766;2022-12-17T04:03:23;98164.56;;;-1.89;100.00
35226;BME280;21813;49.686;21.766;2022-12-17T04:06:25;98165.47;;;-1.90;100.00
35226;BME280;21813;49.686;21.766;2022-12-17T04:09:09;98181.69;;;-1.91;100.00
35226;BME280;21813;49.686;21.766;2022-12-17T04:11:53;98176.69;;;-1.94;100.00
35226;BME280;21813;49.686;21.766;2022-12-17T04:14:38;98178.44;;;-1.96;100.00
35226;BME280;21813;49.686;21.766;2022-12-17T04:17:24;98187.00;;;-1.99;100.00
35226;BME280;21813;49.686;21.766;2022-12-17T04:20:08;98181.97;;;-2.00;100.00
35226;BME280;21813;49.686;21.766;2022-12-17T04:22:54;98176.94;;;-2.03;100.00
35226;BME280;21813;49.686;21.766;2022-12-17T04:25:39;98161.84;;;-2.09;100.00
35226;BME280;21813;49.686;21.766;2022-12-17T04:28:24;98155.13;;;-2.12;100.00
35226;BME280;21813;49.686;21.766;2022-12-17T04:31:08;98151.88;;;-2.17;100.00
35226;BME280;21813;49.686;21.766;2022-12-17T04:33:53;98151.94;;;-2.18;100.00
35226;BME280;21813;49.686;21.766;2022-12-17T04:36:38;98150.38;;;-2.22;100.00
35226;BME280;21813;49.686;21.766;2022-12-17T04:39:23;98162.44;;;-2.28;100.00
35226;BME280;21813;49.686;21.766;2022-12-17T04:42:08;98175.22;;;-2.28;100.00
35226;BME280;21813;49.686;21.766;2022-12-17T04:44:53;98187.19;;;-2.30;100.00
35226;BME280;21813;49.686;21.766;2022-12-17T04:47:39;98185.56;;;-2.32;100.00
35226;BME280;21813;49.686;21.766;2022-12-17T04:50:25;98188.16;;;-2.34;100.00
35226;BME280;21813;49.686;21.766;2022-12-17T04:53:09;98191.50;;;-2.32;100.00
35226;BME280;21813;49.686;21.766;2022-12-17T04:55:54;98196.53;;;-2.30;100.00
35226;BME280;21813;49.686;21.766;2022-12-17T04:58:38;98195.72;;;-2.31;100.00
35226;BME280;21813;49.686;21.766;2022-12-17T05:01:24;98196.63;;;-2.32;100.00
35226;BME280;21813;49.686;21.766;2022-12-17T05:04:09;98200.88;;;-2.32;100.00
35226;BME280;21813;49.686;21.766;2022-12-17T05:06:54;98202.50;;;-2.30;100.00
35226;BME280;21813;49.686;21.766;2022-12-17T05:09:38;98204.19;;;-2.30;100.00
35226;BME280;21813;49.686;21.766;2022-12-17T05:12:24;98203.38;;;-2.31;100.00
35226;BME280;21813;49.686;21.766;2022-12-17T05:15:08;98206.81;;;-2.32;100.00
35226;BME280;21813;49.686;21.766;2022-12-17T05:17:53;98201.78;;;-2.35;100.00
35226;BME280;21813;49.686;21.766;2022-12-17T05:20:37;98207.72;;;-2.34;100.00
35226;BME280;21813;49.686;21.766;2022-12-17T05:23:22;98209.53;;;-2.36;100.00
35226;BME280;21813;49.686;21.766;2022-12-17T05:26:18;98231.69;;;-2.38;100.00
35226;BME280;21813;49.686;21.766;2022-12-17T05:29:04;98224.06;;;-2.40;100.00
35226;BME280;21813;49.686;21.766;2022-12-17T05:31:49;98226.69;;;-2.41;100.00
35226;BME280;21813;49.686;21.766;2022-12-17T05:34:34;98222.69;;;-2.50;100.00
35226;BME280;21813;49.686;21.766;2022-12-17T05:37:18;98222.78;;;-2.53;100.00
35226;BME280;21813;49.686;21.766;2022-12-17T05:40:05;98218.69;;;-2.58;100.00
35226;BME280;21813;49.686;21.766;2022-12-17T05:42:56;98222.91;;;-2.57;100.00
35226;BME280;21813;49.686;21.766;2022-12-17T05:45:42;98218.81;;;-2.63;100.00
35226;BME280;21813;49.686;21.766;2022-12-17T05:48:27;98221.47;;;-2.66;100.00
35226;BME280;21813;49.686;21.766;2022-12-17T05:51:12;98218.13;;;-2.68;100.00
35226;BME280;21813;49.686;21.766;2022-12-17T05:53:56;98218.22;;;-2.71;100.00
35226;BME280;21813;49.686;21.766;2022-12-17T05:56:43;98225.22;;;-2.78;100.00
35226;BME280;21813;49.686;21.766;2022-12-17T05:59:27;98240.44;;;-2.75;100.00
35226;BME280;21813;49.686;21.766;2022-12-17T06:02:12;98245.66;;;-2.79;100.00
35226;BME280;21813;49.686;21.766;2022-12-17T06:04:57;98251.59;;;-2.79;100.00
35226;BME280;21813;49.686;21.766;2022-12-17T06:07:41;98254.22;;;-2.82;100.00
35226;BME280;21813;49.686;21.766;2022-12-17T06:10:26;98256.88;;;-2.85;100.00
35226;BME280;21813;49.686;21.766;2022-12-17T06:13:11;98261.13;;;-2.85;100.00
35226;BME280;21813;49.686;21.766;2022-12-17T06:15:55;98256.13;;;-2.88;100.00
35226;BME280;21813;49.686;21.766;2022-12-17T06:18:41;98258.66;;;-2.88;100.00
35226;BME280;21813;49.686;21.766;2022-12-17T06:21:25;98271.31;;;-2.85;100.00
35226;BME280;21813;49.686;21.766;2022-12-17T06:24:10;98265.47;;;-2.89;100.00
35226;BME280;21813;49.686;21.766;2022-12-17T06:26:55;98262.97;;;-2.90;100.00
35226;BME280;21813;49.686;21.766;2022-12-17T06:29:41;98271.50;;;-2.91;100.00
35226;BME280;21813;49.686;21.766;2022-12-17T06:32:35;98276.63;;;-2.91;100.00
35226;BME280;21813;49.686;21.766;2022-12-17T06:35:20;98287.56;;;-2.88;100.00
35226;BME280;21813;49.686;21.766;2022-12-17T06:38:05;98288.47;;;-2.90;100.00
35226;BME280;21813;49.686;21.766;2022-12-17T06:40:51;98278.25;;;-2.90;100.00
35226;BME280;21813;49.686;21.766;2022-12-17T06:43:35;98299.50;;;-2.90;100.00
35226;BME280;21813;49.686;21.766;2022-12-17T06:46:20;98301.34;;;-2.95;100.00
35226;BME280;21813;49.686;21.766;2022-12-17T06:49:05;98306.53;;;-2.98;100.00
35226;BME280;21813;49.686;21.766;2022-12-17T06:51:50;98304.84;;;-2.99;100.00
35226;BME280;21813;49.686;21.766;2022-12-17T06:54:34;98320.88;;;-2.95;100.00
35226;BME280;21813;49.686;21.766;2022-12-17T06:57:19;98320.13;;;-2.97;100.00
35226;BME280;21813;49.686;21.766;2022-12-17T07:00:04;98330.34;;;-2.99;100.00
35226;BME280;21813;49.686;21.766;2022-12-17T07:02:56;98331.22;;;-3.00;100.00
35226;BME280;21813;49.686;21.766;2022-12-17T07:05:40;98334.53;;;-2.96;100.00
35226;BME280;21813;49.686;21.766;2022-12-17T07:08:27;98324.41;;;-2.99;100.00
35226;BME280;21813;49.686;21.766;2022-12-17T07:11:11;98329.50;;;-2.99;100.00
35226;BME280;21813;49.686;21.766;2022-12-17T07:13:56;98343.13;;;-3.00;100.00
35226;BME280;21813;49.686;21.766;2022-12-17T07:16:41;98346.47;;;-2.98;100.00
35226;BME280;21813;49.686;21.766;2022-12-17T07:19:25;98356.69;;;-2.98;100.00
35226;BME280;21813;49.686;21.766;2022-12-17T07:22:09;98349.03;;;-2.98;100.00
35226;BME280;21813;49.686;21.766;2022-12-17T07:24:54;98371.88;;;-2.95;100.00
35226;BME280;21813;49.686;21.766;2022-12-17T07:27:39;98382.06;;;-2.95;100.00
35226;BME280;21813;49.686;21.766;2022-12-17T07:30:24;98391.38;;;-2.93;100.00
35226;BME280;21813;49.686;21.766;2022-12-17T07:33:09;98389.69;;;-2.94;100.00
35226;BME280;21813;49.686;21.766;2022-12-17T07:35:54;98385.59;;;-2.99;100.00
35226;BME280;21813;49.686;21.766;2022-12-17T07:38:39;98385.59;;;-2.99;100.00
35226;BME280;21813;49.686;21.766;2022-12-17T07:41:25;98396.72;;;-3.02;100.00
35226;BME280;21813;49.686;21.766;2022-12-17T07:44:09;98407.75;;;-3.01;100.00
35226;BME280;21813;49.686;21.766;2022-12-17T07:46:55;98410.31;;;-3.03;100.00
35226;BME280;21813;49.686;21.766;2022-12-17T07:49:38;98405.25;;;-3.04;100.00
35226;BME280;21813;49.686;21.766;2022-12-17T07:52:24;98402.72;;;-3.04;100.00
35226;BME280;21813;49.686;21.766;2022-12-17T07:55:08;98401.06;;;-3.05;100.00
35226;BME280;21813;49.686;21.766;2022-12-17T07:58:03;98404.38;;;-3.03;100.00
35226;BME280;21813;49.686;21.766;2022-12-17T08:00:48;98417.13;;;-3.03;100.00
35226;BME280;21813;49.686;21.766;2022-12-17T08:03:34;98414.69;;;-3.06;100.00
35226;BME280;21813;49.686;21.766;2022-12-17T08:06:18;98420.63;;;-3.06;100.00
35226;BME280;21813;49.686;21.766;2022-12-17T08:09:04;98431.66;;;-3.05;100.00
35226;BME280;21813;49.686;21.766;2022-12-17T08:11:48;98430.03;;;-3.09;100.00
35226;BME280;21813;49.686;21.766;2022-12-17T08:14:34;98433.28;;;-3.04;100.00
35226;BME280;21813;49.686;21.766;2022-12-17T08:17:22;98442.53;;;-3.00;100.00
35226;BME280;21813;49.686;21.766;2022-12-17T08:20:11;98435.72;;;-2.98;100.00
35226;BME280;21813;49.686;21.766;2022-12-17T08:23:02;98450.91;;;-2.95;100.00
35226;BME280;21813;49.686;21.766;2022-12-17T08:25:48;98450.97;;;-2.97;100.00
35226;BME280;21813;49.686;21.766;2022-12-17T08:28:33;98449.22;;;-2.95;100.00
35226;BME280;21813;49.686;21.766;2022-12-17T08:31:19;98460.19;;;-2.91;100.00
35226;BME280;21813;49.686;21.766;2022-12-17T08:34:04;98471.91;;;-2.84;100.00
35226;BME280;21813;49.686;21.766;2022-12-17T08:36:50;98480.50;;;-2.88;100.00
35226;BME280;21813;49.686;21.766;2022-12-17T08:39:34;98487.19;;;-2.84;100.00
35226;BME280;21813;49.686;21.766;2022-12-17T08:42:19;98494.03;;;-2.86;100.00
35226;BME280;21813;49.686;21.766;2022-12-17T08:45:04;98511.00;;;-2.85;100.00
35226;BME280;21813;49.686;21.766;2022-12-17T08:47:51;98504.31;;;-2.89;100.00
35226;BME280;21813;49.686;21.766;2022-12-17T08:50:35;98512.78;;;-2.87;100.00
35226;BME280;21813;49.686;21.766;2022-12-17T08:53:19;98509.41;;;-2.89;100.00
35226;BME280;21813;49.686;21.766;2022-12-17T08:56:03;98509.41;;;-2.89;100.00
35226;BME280;21813;49.686;21.766;2022-12-17T08:58:48;98510.38;;;-2.93;100.00
35226;BME280;21813;49.686;21.766;2022-12-17T09:01:35;98505.34;;;-2.96;100.00
35226;BME280;21813;49.686;21.766;2022-12-17T09:04:23;98513.00;;;-2.96;100.00
35226;BME280;21813;49.686;21.766;2022-12-17T09:07:07;98510.47;;;-2.98;100.00
35226;BME280;21813;49.686;21.766;2022-12-17T09:09:53;98508.81;;;-3.00;100.00
35226;BME280;21813;49.686;21.766;2022-12-17T09:12:38;98513.94;;;-3.00;100.00
35226;BME280;21813;49.686;21.766;2022-12-17T09:15:23;98502.94;;;-3.02;100.00
35226;BME280;21813;49.686;21.766;2022-12-17T09:18:07;98503.69;;;-2.97;100.00
35226;BME280;21813;49.686;21.766;2022-12-17T09:20:54;98514.59;;;-2.92;100.00
35226;BME280;21813;49.686;21.766;2022-12-17T09:23:39;98514.75;;;-2.98;100.00
35226;BME280;21813;49.686;21.766;2022-12-17T09:26:24;98519.03;;;-3.00;100.00
35226;BME280;21813;49.686;21.766;2022-12-17T09:29:08;98536.81;;;-2.97;100.00
35226;BME280;21813;49.686;21.766;2022-12-17T09:31:54;98538.50;;;-2.96;100.00
35226;BME280;21813;49.686;21.766;2022-12-17T09:34:39;98534.16;;;-2.93;100.00
35226;BME280;21813;49.686;21.766;2022-12-17T09:37:24;98523.03;;;-2.90;100.00
35226;BME280;21813;49.686;21.766;2022-12-17T09:40:15;98510.22;;;-2.87;100.00
35226;BME280;21813;49.686;21.766;2022-12-17T09:49:03;98516.84;;;-2.80;100.00
35226;BME280;21813;49.686;21.766;2022-12-17T09:51:51;98514.38;;;-2.83;100.00
35226;BME280;21813;49.686;21.766;2022-12-17T09:54:42;98520.25;;;-2.80;100.00
35226;BME280;21813;49.686;21.766;2022-12-17T09:57:32;98517.88;;;-2.87;100.00
35226;BME280;21813;49.686;21.766;2022-12-17T10:00:23;98526.28;;;-2.82;100.00
35226;BME280;21813;49.686;21.766;2022-12-17T10:03:20;98513.41;;;-2.78;100.00
35226;BME280;21813;49.686;21.766;2022-12-17T10:09:01;98522.66;;;-2.74;100.00
35226;BME280;21813;49.686;21.766;2022-12-17T10:11:47;98519.31;;;-2.77;100.00
35226;BME280;21813;49.686;21.766;2022-12-17T10:14:31;98515.91;;;-2.76;100.00
35226;BME280;21813;49.686;21.766;2022-12-17T10:17:25;98519.19;;;-2.71;100.00
35226;BME280;21813;49.686;21.766;2022-12-17T10:20:31;98520.84;;;-2.70;100.00
35226;BME280;21813;49.686;21.766;2022-12-17T10:23:27;98526.03;;;-2.73;100.00
35226;BME280;21813;49.686;21.766;2022-12-17T10:26:20;98526.94;;;-2.76;100.00
35226;BME280;21813;49.686;21.766;2022-12-17T10:29:11;98537.13;;;-2.74;100.00
35226;BME280;21813;49.686;21.766;2022-12-17T10:35:13;98539.72;;;-2.77;100.00
35226;BME280;21813;49.686;21.766;2022-12-17T10:38:00;98550.09;;;-2.83;100.00
35226;BME280;21813;49.686;21.766;2022-12-17T10:40:47;98554.22;;;-2.79;100.00
35226;BME280;21813;49.686;21.766;2022-12-17T10:43:33;98544.75;;;-2.74;100.00
35226;BME280;21813;49.686;21.766;2022-12-17T10:46:44;98556.44;;;-2.64;100.00
35226;BME280;21813;49.686;21.766;2022-12-17T10:49:31;98552.22;;;-2.67;100.00
35226;BME280;21813;49.686;21.766;2022-12-17T10:52:30;98561.44;;;-2.61;100.00
35226;BME280;21813;49.686;21.766;2022-12-17T10:55:25;98568.22;;;-2.60;100.00
35226;BME280;21813;49.686;21.766;2022-12-17T10:58:27;98569.97;;;-2.62;100.00
35226;BME280;21813;49.686;21.766;2022-12-17T11:01:23;98554.66;;;-2.62;100.00
35226;BME280;21813;49.686;21.766;2022-12-17T11:04:28;98573.25;;;-2.57;100.00
35226;BME280;21813;49.686;21.766;2022-12-17T11:10:22;98571.56;;;-2.58;100.00
35226;BME280;21813;49.686;21.766;2022-12-17T11:13:11;98584.38;;;-2.59;100.00
35226;BME280;21813;49.686;21.766;2022-12-17T11:15:58;98575.94;;;-2.63;100.00
35226;BME280;21813;49.686;21.766;2022-12-17T11:19:12;98575.19;;;-2.68;100.00
35226;BME280;21813;49.686;21.766;2022-12-17T11:22:22;98589.63;;;-2.65;100.00
35226;BME280;21813;49.686;21.766;2022-12-17T11:25:26;98582.94;;;-2.71;100.00
35226;BME280;21813;49.686;21.766;2022-12-17T11:28:19;98589.00;;;-2.77;100.00
35226;BME280;21813;49.686;21.766;2022-12-17T11:43:14;98604.09;;;-2.66;100.00
35226;BME280;21813;49.686;21.766;2022-12-17T11:50:00;98593.97;;;-2.69;100.00
35226;BME280;21813;49.686;21.766;2022-12-17T11:56:25;98592.28;;;-2.70;100.00
35226;BME280;21813;49.686;21.766;2022-12-17T12:05:49;98616.22;;;-2.76;100.00
35226;BME280;21813;49.686;21.766;2022-12-17T12:11:50;98629.88;;;-2.78;100.00
35226;BME280;21813;49.686;21.766;2022-12-17T12:15:02;98639.19;;;-2.77;100.00
35226;BME280;21813;49.686;21.766;2022-12-17T12:18:06;98648.69;;;-2.82;100.00
35226;BME280;21813;49.686;21.766;2022-12-17T12:30:21;98665.16;;;-2.98;100.00
35226;BME280;21813;49.686;21.766;2022-12-17T12:33:24;98669.41;;;-2.97;100.00
35226;BME280;21813;49.686;21.766;2022-12-17T12:36:15;98669.41;;;-2.97;100.00
35226;BME280;21813;49.686;21.766;2022-12-17T12:39:01;98660.94;;;-2.99;100.00
35226;BME280;21813;49.686;21.766;2022-12-17T12:41:52;98674.53;;;-3.00;100.00
35226;BME280;21813;49.686;21.766;2022-12-17T12:44:54;98670.28;;;-3.00;100.00
35226;BME280;21813;49.686;21.766;2022-12-17T12:48:01;98673.75;;;-3.02;100.00
35226;BME280;21813;49.686;21.766;2022-12-17T12:53:41;98676.38;;;-3.05;100.00
35226;BME280;21813;49.686;21.766;2022-12-17T12:56:32;98666.22;;;-3.08;100.00
35226;BME280;21813;49.686;21.766;2022-12-17T12:59:27;98698.50;;;-3.07;100.00
35226;BME280;21813;49.686;21.766;2022-12-17T13:02:29;98701.91;;;-3.08;100.00
35226;BME280;21813;49.686;21.766;2022-12-17T13:10:36;98723.34;;;-3.19;100.00
35226;BME280;21813;49.686;21.766;2022-12-17T13:13:34;98732.69;;;-3.18;100.00
35226;BME280;21813;49.686;21.766;2022-12-17T13:16:23;98732.75;;;-3.21;100.00
35226;BME280;21813;49.686;21.766;2022-12-17T13:19:14;98732.75;;;-3.21;100.00
35226;BME280;21813;49.686;21.766;2022-12-17T13:21:42;98718.31;;;-3.22;100.00
35226;BME280;21813;49.686;21.766;2022-12-17T13:24:11;98721.72;;;-3.21;100.00
35226;BME280;21813;49.686;21.766;2022-12-17T13:29:32;98723.44;;;-3.23;100.00
35226;BME280;21813;49.686;21.766;2022-12-17T13:32:19;98731.13;;;-3.25;100.00
35226;BME280;21813;49.686;21.766;2022-12-17T13:35:15;98741.31;;;-3.25;100.00
35226;BME280;21813;49.686;21.766;2022-12-17T13:42:44;98751.56;;;-3.28;100.00
35226;BME280;21813;49.686;21.766;2022-12-17T13:45:14;98754.16;;;-3.31;100.00
35226;BME280;21813;49.686;21.766;2022-12-17T13:47:41;98765.22;;;-3.32;100.00
35226;BME280;21813;49.686;21.766;2022-12-17T13:50:21;98776.25;;;-3.31;100.00
35226;BME280;21813;49.686;21.766;2022-12-17T13:52:48;98770.38;;;-3.35;100.00
35226;BME280;21813;49.686;21.766;2022-12-17T13:55:23;98769.56;;;-3.37;100.00
35226;BME280;21813;49.686;21.766;2022-12-17T13:57:52;98782.28;;;-3.37;100.00
35226;BME280;21813;49.686;21.766;2022-12-17T14:02:53;98789.09;;;-3.37;100.00
35226;BME280;21813;49.686;21.766;2022-12-17T14:05:29;98792.50;;;-3.37;100.00
35226;BME280;21813;49.686;21.766;2022-12-17T14:08:00;98797.59;;;-3.37;100.00
35226;BME280;21813;49.686;21.766;2022-12-17T14:10:28;98789.16;;;-3.40;100.00
35226;BME280;21813;49.686;21.766;2022-12-17T14:13:06;98796.81;;;-3.40;100.00
35226;BME280;21813;49.686;21.766;2022-12-17T14:15:33;98802.75;;;-3.40;100.00
35226;BME280;21813;49.686;21.766;2022-12-17T14:18:00;98806.19;;;-3.42;100.00
35226;BME280;21813;49.686;21.766;2022-12-17T14:20:32;98812.16;;;-3.43;100.00
35226;BME280;21813;49.686;21.766;2022-12-17T14:23:03;98810.47;;;-3.46;100.00
35226;BME280;21813;49.686;21.766;2022-12-17T14:25:38;98815.63;;;-3.47;100.00
35226;BME280;21813;49.686;21.766;2022-12-17T14:28:06;98823.22;;;-3.46;100.00
35226;BME280;21813;49.686;21.766;2022-12-17T14:30:43;98830.09;;;-3.51;100.00
35226;BME280;21813;49.686;21.766;2022-12-17T14:33:34;98828.44;;;-3.52;100.00
35226;BME280;21813;49.686;21.766;2022-12-17T14:36:06;98844.59;;;-3.54;100.00
35226;BME280;21813;49.686;21.766;2022-12-17T14:38:33;98859.03;;;-3.55;100.00
35226;BME280;21813;49.686;21.766;2022-12-17T14:41:11;98863.34;;;-3.57;100.00
35226;BME280;21813;49.686;21.766;2022-12-17T14:43:58;98872.66;;;-3.56;100.00
35226;BME280;21813;49.686;21.766;2022-12-17T14:46:26;98872.69;;;-3.59;100.00
35226;BME280;21813;49.686;21.766;2022-12-17T14:48:55;98873.53;;;-3.60;100.00
35226;BME280;21813;49.686;21.766;2022-12-17T14:51:30;98875.25;;;-3.61;100.00
35226;BME280;21813;49.686;21.766;2022-12-17T14:56:58;98882.09;;;-3.64;100.00
35226;BME280;21813;49.686;21.766;2022-12-17T14:59:31;98889.75;;;-3.64;100.00
35226;BME280;21813;49.686;21.766;2022-12-17T15:02:21;98888.09;;;-3.68;100.00
35226;BME280;21813;49.686;21.766;2022-12-17T15:04:45;98886.47;;;-3.71;100.00
35226;BME280;21813;49.686;21.766;2022-12-17T15:07:13;98892.47;;;-3.75;100.00
35226;BME280;21813;49.686;21.766;2022-12-17T15:09:42;98894.19;;;-3.78;100.00
35226;BME280;21813;49.686;21.766;2022-12-17T15:12:09;98899.34;;;-3.81;100.00
35226;BME280;21813;49.686;21.766;2022-12-17T15:14:36;98896.84;;;-3.84;100.00
35226;BME280;21813;49.686;21.766;2022-12-17T15:17:01;98896.91;;;-3.90;100.00
35226;BME280;21813;49.686;21.766;2022-12-17T15:19:28;98903.72;;;-3.92;100.00
35226;BME280;21813;49.686;21.766;2022-12-17T15:21:54;98907.16;;;-3.93;100.00
35226;BME280;21813;49.686;21.766;2022-12-17T15:24:21;98910.56;;;-3.94;100.00
35226;BME280;21813;49.686;21.766;2022-12-17T15:26:47;98915.66;;;-3.96;100.00
35226;BME280;21813;49.686;21.766;2022-12-17T15:29:13;98920.75;;;-3.97;100.00
35226;BME280;21813;49.686;21.766;2022-12-17T15:31:39;98927.59;;;-3.99;100.00
35226;BME280;21813;49.686;21.766;2022-12-17T15:34:05;98930.16;;;-4.01;100.00
35226;BME280;21813;49.686;21.766;2022-12-17T15:36:31;98943.78;;;-4.04;100.00
35226;BME280;21813;49.686;21.766;2022-12-17T15:38:57;98946.31;;;-4.05;100.00
35226;BME280;21813;49.686;21.766;2022-12-17T15:41:24;98942.06;;;-4.05;100.00